createdAt,value
2023-04-25T00:01:53.923Z,24.00
2023-04-25T00:04:21.023Z,25.00
2023-04-25T00:06:48.117Z,24.00
2023-04-25T00:09:15.022Z,24.00
2023-04-25T00:11:41.941Z,25.00
2023-04-25T00:14:08.848Z,24.00
2023-04-25T00:16:35.834Z,24.00
2023-04-25T00:19:03.203Z,23.50
2023-04-25T00:21:30.903Z,24.00
2023-04-25T00:23:57.964Z,24.00
2023-04-25T00:26:24.907Z,24.50
2023-04-25T00:28:51.798Z,24.00
2023-04-25T00:31:18.787Z,24.00
2023-04-25T00:33:45.761Z,24.00
2023-04-25T00:36:12.758Z,24.00
2023-04-25T00:38:39.876Z,24.00
2023-04-25T00:41:09.737Z,23.75
2023-04-25T00:43:38.425Z,24.00
2023-04-25T00:46:05.317Z,24.00
2023-04-25T00:48:32.368Z,24.00
2023-04-25T00:51:00.755Z,24.00
2023-04-25T00:53:29.321Z,24.00
2023-04-25T00:55:56.939Z,24.00
2023-04-25T00:58:24.106Z,24.00
2023-04-25T01:00:53.105Z,24.75
2023-04-25T01:03:20.792Z,24.00
2023-04-25T01:05:48.409Z,24.00
2023-04-25T01:08:15.714Z,24.00
2023-04-25T01:10:43.048Z,23.00
2023-04-25T01:13:10.042Z,24.00
2023-04-25T01:15:36.983Z,23.25
2023-04-25T01:18:06.540Z,25.00
2023-04-25T01:20:34.625Z,24.00
2023-04-25T01:23:02.253Z,24.00
2023-04-25T01:25:30.195Z,24.00
2023-04-25T01:27:58.679Z,23.00
2023-04-25T01:30:28.016Z,23.50
2023-04-25T01:32:58.510Z,23.00
2023-04-25T01:35:25.776Z,23.00
2023-04-25T01:37:54.468Z,23.00
2023-04-25T01:40:22.525Z,22.50
2023-04-25T01:42:49.883Z,23.00
2023-04-25T01:45:17.158Z,23.00
2023-04-25T01:47:44.909Z,24.00
2023-04-25T01:50:12.352Z,24.00
2023-04-25T01:52:39.686Z,24.00
2023-04-25T01:55:07.827Z,23.00
2023-04-25T01:57:37.399Z,23.50
2023-04-25T02:00:07.131Z,24.00
2023-04-25T02:02:40.587Z,23.00
2023-04-25T02:05:28.156Z,24.00
2023-04-25T02:07:55.209Z,23.00
2023-04-25T02:10:25.451Z,23.25
2023-04-25T02:13:12.645Z,24.00
2023-04-25T02:16:04.966Z,23.00
2023-04-25T02:18:32.201Z,23.00
2023-04-25T02:21:00.910Z,23.00
2023-04-25T02:23:27.986Z,24.00
2023-04-25T02:25:54.903Z,23.25
2023-04-25T02:28:22.061Z,24.00
2023-04-25T02:30:48.933Z,23.00
2023-04-25T02:33:15.912Z,23.00
2023-04-25T02:35:42.748Z,23.00
2023-04-25T02:38:09.832Z,23.00
2023-04-25T02:40:36.820Z,24.00
2023-04-25T02:43:03.852Z,23.50
2023-04-25T02:45:30.780Z,23.00
2023-04-25T02:47:58.005Z,23.00
2023-04-25T02:50:24.906Z,23.00
2023-04-25T02:52:51.970Z,24.00
2023-04-25T02:55:27.082Z,24.00
2023-04-25T02:57:55.750Z,23.00
2023-04-25T03:00:37.883Z,24.00
2023-04-25T03:03:05.012Z,24.00
2023-04-25T03:05:32.133Z,23.00
2023-04-25T03:07:59.556Z,24.00
2023-04-25T03:10:27.827Z,24.00
2023-04-25T03:12:56.756Z,23.00
2023-04-25T03:15:23.691Z,24.00
2023-04-25T03:17:50.679Z,24.00
2023-04-25T03:20:17.547Z,24.00
2023-04-25T03:22:44.598Z,23.00
2023-04-25T03:25:11.439Z,24.00
2023-04-25T03:27:38.359Z,24.00
2023-04-25T03:30:07.175Z,23.00
2023-04-25T03:32:35.744Z,24.00
2023-04-25T03:35:02.759Z,23.50
2023-04-25T03:37:31.376Z,24.00
2023-04-25T03:39:58.335Z,23.25
2023-04-25T03:42:33.271Z,23.50
2023-04-25T03:45:00.423Z,24.00
2023-04-25T03:47:27.379Z,23.00
2023-04-25T03:49:55.030Z,24.00
2023-04-25T03:52:23.696Z,24.00
2023-04-25T03:54:50.740Z,24.00
2023-04-25T03:57:20.253Z,24.00
2023-04-25T03:59:47.555Z,24.00
2023-04-25T04:02:15.900Z,24.00
2023-04-25T04:04:43.818Z,24.00
2023-04-25T04:07:11.428Z,24.00
2023-04-25T04:09:41.553Z,24.00
2023-04-25T04:12:13.666Z,24.75
2023-04-25T04:14:41.777Z,24.00
2023-04-25T04:17:08.638Z,24.00
2023-04-25T04:19:36.615Z,23.50
2023-04-25T04:22:09.433Z,24.00
2023-04-25T04:24:36.526Z,24.25
2023-04-25T04:27:07.229Z,25.00
2023-04-25T04:29:41.078Z,25.00
2023-04-25T04:32:16.817Z,25.00
2023-04-25T04:34:43.882Z,25.00
2023-04-25T04:37:14.301Z,24.00
2023-04-25T04:39:43.021Z,24.00
2023-04-25T04:42:35.984Z,24.00
2023-04-25T04:45:21.400Z,23.50
2023-04-25T04:48:14.420Z,23.50
2023-04-25T04:51:16.552Z,24.00
2023-04-25T04:54:06.138Z,24.00
2023-04-25T04:56:59.412Z,24.00
2023-04-25T04:59:43.037Z,23.50
2023-04-25T05:02:28.630Z,24.00
2023-04-25T05:05:21.935Z,24.00
2023-04-25T05:08:22.774Z,24.00
2023-04-25T05:11:15.092Z,24.00
2023-04-25T05:14:14.255Z,24.00
2023-04-25T05:17:07.715Z,24.00
2023-04-25T05:19:46.983Z,23.00
2023-04-25T05:22:50.137Z,23.75
2023-04-25T05:25:25.597Z,24.00
2023-04-25T05:28:30.890Z,24.00
2023-04-25T05:31:18.737Z,24.00
2023-04-25T05:33:55.119Z,24.00
2023-04-25T05:36:23.058Z,24.00
2023-04-25T05:38:50.174Z,24.00
2023-04-25T05:41:37.425Z,24.00
2023-04-25T05:44:33.560Z,23.50
2023-04-25T05:47:16.605Z,22.50
2023-04-25T05:49:58.165Z,23.50
2023-04-25T05:52:44.309Z,24.00
2023-04-25T05:55:24.188Z,25.00
2023-04-25T05:57:51.668Z,24.00
2023-04-25T06:00:18.991Z,24.00
2023-04-25T06:03:08.166Z,23.00
2023-04-25T06:05:35.519Z,24.00
2023-04-25T06:08:21.352Z,24.00
2023-04-25T06:10:48.388Z,23.00
2023-04-25T06:13:15.464Z,23.00
2023-04-25T06:15:42.977Z,23.25
2023-04-25T06:18:09.982Z,23.00
2023-04-25T06:20:37.027Z,23.00
2023-04-25T06:23:04.027Z,24.00
2023-04-25T06:25:51.310Z,24.00
2023-04-25T06:28:18.413Z,23.00
2023-04-25T06:30:45.371Z,24.00
2023-04-25T06:33:17.204Z,24.00
2023-04-25T06:35:44.334Z,24.00
2023-04-25T06:38:13.688Z,24.00
2023-04-25T06:40:45.209Z,24.00
2023-04-25T06:43:13.128Z,24.00
2023-04-25T06:46:03.545Z,24.00
2023-04-25T06:48:33.001Z,24.00
2023-04-25T06:51:00.030Z,24.00
2023-04-25T06:53:27.502Z,23.00
2023-04-25T06:55:59.160Z,23.00
2023-04-25T06:58:31.376Z,23.00
2023-04-25T07:01:14.335Z,23.50
2023-04-25T07:03:41.595Z,24.00
2023-04-25T07:06:14.814Z,24.00
2023-04-25T07:08:42.090Z,24.00
2023-04-25T07:11:08.963Z,23.00
2023-04-25T07:13:37.292Z,23.75
2023-04-25T07:16:05.366Z,24.00
2023-04-25T07:18:34.472Z,23.00
2023-04-25T07:21:02.424Z,24.00
2023-04-25T07:23:30.530Z,24.00
2023-04-25T07:26:00.640Z,23.00
2023-04-25T07:28:29.665Z,23.00
2023-04-25T07:30:56.592Z,24.00
2023-04-25T07:33:25.543Z,23.50
2023-04-25T07:35:53.430Z,23.00
2023-04-25T07:38:20.833Z,23.00
2023-04-25T07:40:49.146Z,23.00
2023-04-25T07:43:17.030Z,23.00
2023-04-25T07:45:54.363Z,23.00
2023-04-25T07:48:22.374Z,23.00
2023-04-25T07:50:52.263Z,22.50
2023-04-25T07:53:19.802Z,23.50
2023-04-25T07:55:52.743Z,23.00
2023-04-25T07:58:21.258Z,24.00
2023-04-25T08:00:50.063Z,23.00
2023-04-25T08:03:38.221Z,23.00
2023-04-25T08:06:11.251Z,24.00
2023-04-25T08:09:04.657Z,22.50
2023-04-25T08:11:38.276Z,23.50
2023-04-25T08:14:06.960Z,24.00
2023-04-25T08:16:34.981Z,24.00
2023-04-25T08:19:03.611Z,24.00
2023-04-25T08:21:30.560Z,24.00
2023-04-25T08:24:00.450Z,24.00
2023-04-25T08:26:30.934Z,25.00
2023-04-25T08:28:58.568Z,23.50
2023-04-25T08:31:25.483Z,24.00
2023-04-25T08:33:59.248Z,24.00
2023-04-25T08:36:39.321Z,23.00
2023-04-25T08:39:25.906Z,23.00
2023-04-25T08:42:19.179Z,23.00
2023-04-25T08:44:50.317Z,24.00
2023-04-25T08:47:22.833Z,23.00
2023-04-25T08:49:56.239Z,23.00
2023-04-25T08:52:24.975Z,24.00
2023-04-25T08:54:54.998Z,24.00
2023-04-25T08:57:22.722Z,23.00
2023-04-25T08:59:52.892Z,23.25
2023-04-25T09:02:20.493Z,24.00
2023-04-25T09:04:50.604Z,24.00
2023-04-25T09:07:17.704Z,23.00
2023-04-25T09:09:44.920Z,23.50
2023-04-25T09:12:14.622Z,23.00
2023-04-25T09:14:41.528Z,23.00
2023-04-25T09:17:19.215Z,23.00
2023-04-25T09:19:52.771Z,24.00
2023-04-25T09:22:32.521Z,24.00
2023-04-25T09:25:04.296Z,24.00
2023-04-25T09:27:34.124Z,24.00
2023-04-25T09:30:16.803Z,23.00
2023-04-25T09:33:08.694Z,23.00
2023-04-25T09:35:41.707Z,23.00
2023-04-25T09:38:15.089Z,22.00
2023-04-25T09:40:57.647Z,23.00
2023-04-25T09:43:34.708Z,24.00
2023-04-25T09:46:01.985Z,23.50
2023-04-25T09:48:30.994Z,24.00
2023-04-25T09:51:05.953Z,24.00
2023-04-25T09:53:41.139Z,24.00
2023-04-25T09:56:14.841Z,24.00
2023-04-25T09:58:42.679Z,23.00
2023-04-25T10:01:11.796Z,24.00
2023-04-25T10:03:53.722Z,24.00
2023-04-25T10:06:39.085Z,24.00
2023-04-25T10:09:08.147Z,24.50
2023-04-25T10:11:36.050Z,23.00
2023-04-25T10:14:03.377Z,23.50
2023-04-25T10:16:31.286Z,24.00
2023-04-25T10:18:58.622Z,23.00
2023-04-25T10:21:27.304Z,23.00
2023-04-25T10:23:55.633Z,24.00
2023-04-25T10:26:26.103Z,23.75
2023-04-25T10:29:01.868Z,24.00
2023-04-25T10:31:31.163Z,23.00
2023-04-25T10:33:59.764Z,24.00
2023-04-25T10:36:33.553Z,23.00
2023-04-25T10:39:08.104Z,24.00
2023-04-25T10:41:53.709Z,24.00
2023-04-25T10:44:20.803Z,23.00
2023-04-25T10:46:47.996Z,24.00
2023-04-25T10:49:39.174Z,23.50
2023-04-25T10:52:19.680Z,24.00
2023-04-25T10:54:58.413Z,23.00
2023-04-25T10:57:28.365Z,23.00
2023-04-25T10:59:55.590Z,23.00
2023-04-25T11:02:27.264Z,23.00
2023-04-25T11:04:54.799Z,24.00
2023-04-25T11:07:35.167Z,23.00
2023-04-25T11:10:05.909Z,24.00
2023-04-25T11:12:33.468Z,24.00
2023-04-25T11:15:01.942Z,23.00
2023-04-25T11:17:29.570Z,24.00
2023-04-25T11:19:56.724Z,24.00
2023-04-25T11:22:32.734Z,23.50
2023-04-25T11:25:05.342Z,23.00
2023-04-25T11:27:34.132Z,23.00
2023-04-25T11:30:15.113Z,23.00
2023-04-25T11:32:42.484Z,23.00
2023-04-25T11:35:12.261Z,23.00
2023-04-25T11:37:43.429Z,23.25
2023-04-25T11:40:11.215Z,24.00
2023-04-25T11:42:45.407Z,24.00
2023-04-25T11:45:12.671Z,24.00
2023-04-25T11:47:39.854Z,23.00
2023-04-25T11:50:09.228Z,24.00
2023-04-25T11:52:39.783Z,24.00
2023-04-25T11:55:18.118Z,24.00
2023-04-25T11:57:47.528Z,24.00
2023-04-25T12:00:18.607Z,23.00
2023-04-25T12:02:48.274Z,24.00
2023-04-25T12:05:31.077Z,24.00
2023-04-25T12:07:59.624Z,23.00
2023-04-25T12:10:26.610Z,23.50
2023-04-25T12:12:56.752Z,23.00
2023-04-25T12:15:26.913Z,23.00
2023-04-25T12:17:58.034Z,23.50
2023-04-25T12:20:27.993Z,24.00
2023-04-25T12:22:55.965Z,23.50
2023-04-25T12:25:41.961Z,24.00
2023-04-25T12:28:19.321Z,24.00
2023-04-25T12:31:08.430Z,24.00
2023-04-25T12:33:37.120Z,24.00
2023-04-25T12:36:08.329Z,23.00
2023-04-25T12:38:42.545Z,23.00
2023-04-25T12:41:09.919Z,23.00
2023-04-25T12:43:36.778Z,23.00
2023-04-25T12:46:04.280Z,23.00
2023-04-25T12:48:31.178Z,24.00
2023-04-25T12:50:58.252Z,23.00
2023-04-25T12:53:25.132Z,24.00
2023-04-25T12:55:52.759Z,23.00
2023-04-25T12:58:20.526Z,24.00
2023-04-25T13:00:47.966Z,23.00
2023-04-25T13:03:15.026Z,23.00
2023-04-25T13:05:45.149Z,24.00
2023-04-25T13:08:12.068Z,23.00
2023-04-25T13:10:39.012Z,24.00
2023-04-25T13:13:06.096Z,22.00
2023-04-25T13:15:33.325Z,23.00
2023-04-25T13:18:00.266Z,23.00
2023-04-25T13:20:27.444Z,23.00
2023-04-25T13:22:54.329Z,23.00
2023-04-25T13:25:21.328Z,23.00
2023-04-25T13:27:48.403Z,23.00
2023-04-25T13:30:15.544Z,23.00
2023-04-25T13:32:42.611Z,24.00
2023-04-25T13:35:13.490Z,24.00
2023-04-25T13:37:41.013Z,24.00
2023-04-25T13:40:11.340Z,23.00
2023-04-25T13:42:39.613Z,24.00
2023-04-25T13:45:07.824Z,23.50
2023-04-25T13:47:35.762Z,24.00
2023-04-25T13:50:02.816Z,24.00
2023-04-25T13:52:30.277Z,23.00
2023-04-25T13:54:57.331Z,23.00
2023-04-25T13:57:24.677Z,24.00
2023-04-25T13:59:52.385Z,24.00
2023-04-25T14:02:19.321Z,24.00
2023-04-25T14:04:46.352Z,23.00
2023-04-25T14:07:13.374Z,23.00
2023-04-25T14:09:40.306Z,24.00
2023-04-25T14:12:07.554Z,23.00
2023-04-25T14:14:34.630Z,23.25
2023-04-25T14:17:02.812Z,23.50
2023-04-25T14:19:29.761Z,24.00
2023-04-25T14:21:56.962Z,25.00
2023-04-25T14:24:26.179Z,24.00
2023-04-25T14:26:53.149Z,24.00
2023-04-25T14:29:20.131Z,24.00
2023-04-25T14:31:47.112Z,23.25
2023-04-25T14:34:14.068Z,24.00
2023-04-25T14:36:41.047Z,24.00
2023-04-25T14:39:08.003Z,23.00
2023-04-25T14:41:34.989Z,23.50
2023-04-25T14:44:01.904Z,24.00
2023-04-25T14:46:28.840Z,24.00
2023-04-25T14:48:55.861Z,24.00
2023-04-25T14:51:23.304Z,24.00
2023-04-25T14:53:52.242Z,24.00
2023-04-25T14:56:25.743Z,22.50
2023-04-25T14:58:53.359Z,25.00
2023-04-25T15:01:23.459Z,23.25
2023-04-25T15:03:56.804Z,23.75
2023-04-25T15:06:25.699Z,24.00
2023-04-25T15:08:52.725Z,25.00
2023-04-25T15:11:20.549Z,25.00
2023-04-25T15:13:47.542Z,24.00
2023-04-25T15:16:14.629Z,24.00
2023-04-25T15:18:41.702Z,25.00
2023-04-25T15:21:08.746Z,25.00
2023-04-25T15:23:35.588Z,24.00
2023-04-25T15:26:02.653Z,25.00
2023-04-25T15:28:31.854Z,25.25
2023-04-25T15:30:58.846Z,25.00
2023-04-25T15:33:25.802Z,25.25
2023-04-25T15:35:52.930Z,26.00
2023-04-25T15:38:19.852Z,25.00
2023-04-25T15:40:49.270Z,25.00
2023-04-25T15:43:16.452Z,24.50
2023-04-25T15:45:43.600Z,24.75
2023-04-25T15:48:10.589Z,25.00
2023-04-25T15:50:37.617Z,24.50
2023-04-25T15:53:06.561Z,25.00
2023-04-25T15:55:34.898Z,25.00
2023-04-25T15:58:02.132Z,25.00
2023-04-25T16:00:29.482Z,25.00
2023-04-25T16:02:56.662Z,25.00
2023-04-25T16:05:25.612Z,25.00
2023-04-25T16:08:10.988Z,25.00
2023-04-25T16:10:38.026Z,25.00
2023-04-25T16:13:23.613Z,25.00
2023-04-25T16:15:50.885Z,25.00
2023-04-25T16:18:18.058Z,25.00
2023-04-25T16:20:45.243Z,24.00
2023-04-25T16:23:12.127Z,24.00
2023-04-25T16:25:39.260Z,24.00
2023-04-25T16:28:24.931Z,25.00
2023-04-25T16:30:55.361Z,25.00
2023-04-25T16:33:22.351Z,25.00
2023-04-25T16:36:08.418Z,26.00
2023-04-25T16:38:35.469Z,25.00
2023-04-25T16:41:02.323Z,24.50
2023-04-25T16:43:31.879Z,25.00
2023-04-25T16:46:01.666Z,25.00
2023-04-25T16:48:28.523Z,25.00
2023-04-25T16:50:57.236Z,24.50
2023-04-25T16:53:24.237Z,24.50
2023-04-25T16:55:51.217Z,25.00
2023-04-25T16:58:20.459Z,25.25
2023-04-25T17:00:47.453Z,25.00
2023-04-25T17:03:15.597Z,24.50
2023-04-25T17:05:42.931Z,25.00
2023-04-25T17:08:10.035Z,25.00
2023-04-25T17:10:36.999Z,25.00
2023-04-25T17:13:06.375Z,24.25
2023-04-25T17:15:35.379Z,25.00
2023-04-25T17:18:02.782Z,25.00
2023-04-25T17:20:29.835Z,25.00
2023-04-25T17:22:56.716Z,25.00
2023-04-25T17:25:24.108Z,25.00
2023-04-25T17:27:51.183Z,24.50
2023-04-25T17:30:18.060Z,25.00
2023-04-25T17:32:48.036Z,24.00
2023-04-25T17:35:15.219Z,24.00
2023-04-25T17:37:42.102Z,24.00
2023-04-25T17:40:09.833Z,25.00
2023-04-25T17:42:36.846Z,25.00
2023-04-25T17:45:04.204Z,25.00
2023-04-25T17:47:34.710Z,25.75
2023-04-25T17:50:01.692Z,26.00
2023-04-25T17:52:28.696Z,25.50
2023-04-25T17:54:55.658Z,26.00
2023-04-25T17:57:22.580Z,25.00
2023-04-25T17:59:49.760Z,26.00
2023-04-25T18:02:17.111Z,25.75
2023-04-25T18:04:44.272Z,27.50
2023-04-25T18:07:11.244Z,30.50
2023-04-25T18:09:40.679Z,31.00
2023-04-25T18:12:07.785Z,31.00
2023-04-25T18:14:35.022Z,32.00
2023-04-25T18:17:04.288Z,30.00
2023-04-25T18:19:31.293Z,29.25
2023-04-25T18:21:58.218Z,30.50
2023-04-25T18:24:25.575Z,28.00
2023-04-25T18:26:52.798Z,26.50
2023-04-25T18:29:32.142Z,27.00
2023-04-25T18:32:00.863Z,25.50
2023-04-25T18:34:27.875Z,25.00
2023-04-25T18:36:58.089Z,25.00
2023-04-25T18:39:43.584Z,25.00
2023-04-25T18:42:11.329Z,25.00
2023-04-25T18:44:38.270Z,25.00
2023-04-25T18:47:13.672Z,25.00
2023-04-25T18:49:40.860Z,25.00
2023-04-25T18:52:08.029Z,25.00
2023-04-25T18:54:35.077Z,25.00
2023-04-25T18:57:02.015Z,25.00
2023-04-25T18:59:29.173Z,25.00
2023-04-25T19:01:56.222Z,25.00
2023-04-25T19:04:23.174Z,26.00
2023-04-25T19:06:50.038Z,25.00
2023-04-25T19:09:17.143Z,26.50
2023-04-25T19:11:44.550Z,25.00
2023-04-25T19:14:13.374Z,25.00
2023-04-25T19:16:42.820Z,25.00
2023-04-25T19:19:09.821Z,25.75
2023-04-25T19:21:37.021Z,25.00
2023-04-25T19:24:04.951Z,25.00
2023-04-25T19:26:32.620Z,25.00
2023-04-25T19:29:10.902Z,25.00
2023-04-25T19:31:39.980Z,25.00
2023-04-25T19:34:07.803Z,25.00
2023-04-25T19:36:37.003Z,25.00
2023-04-25T19:39:06.533Z,26.00
2023-04-25T19:41:35.642Z,26.00
2023-04-25T19:44:04.514Z,25.00
2023-04-25T19:46:31.689Z,25.00
2023-04-25T19:48:59.104Z,25.00
2023-04-25T19:51:26.234Z,26.00
2023-04-25T19:53:54.055Z,26.00
2023-04-25T19:56:24.077Z,26.00
2023-04-25T19:58:51.558Z,25.00
2023-04-25T20:01:19.278Z,26.00
2023-04-25T20:03:46.191Z,24.50
2023-04-25T20:06:14.045Z,24.00
2023-04-25T20:08:41.260Z,25.00
2023-04-25T20:11:08.129Z,23.50
2023-04-25T20:13:35.139Z,25.25
2023-04-25T20:16:02.887Z,25.00
2023-04-25T20:18:29.979Z,25.00
2023-04-25T20:20:56.856Z,25.00
2023-04-25T20:23:23.736Z,26.25
2023-04-25T20:25:56.470Z,26.00
2023-04-25T20:28:24.516Z,25.50
2023-04-25T20:30:51.623Z,25.00
2023-04-25T20:33:18.705Z,24.00
2023-04-25T20:35:45.603Z,25.00
2023-04-25T20:38:12.614Z,25.00
2023-04-25T20:40:39.724Z,24.00
2023-04-25T20:43:06.943Z,25.00
2023-04-25T20:45:33.962Z,24.00
2023-04-25T20:48:00.971Z,25.00
2023-04-25T20:50:28.398Z,25.00
2023-04-25T20:52:55.481Z,25.00
2023-04-25T20:55:22.502Z,25.00
2023-04-25T20:57:49.508Z,24.00
2023-04-25T21:00:16.931Z,24.50
2023-04-25T21:02:44.802Z,24.00
2023-04-25T21:05:12.114Z,25.00
2023-04-25T21:07:40.803Z,24.00
2023-04-25T21:10:07.994Z,24.50
2023-04-25T21:12:35.098Z,25.00
2023-04-25T21:15:02.422Z,24.00
2023-04-25T21:17:29.480Z,24.00
2023-04-25T21:19:56.702Z,25.00
2023-04-25T21:22:23.836Z,25.00
2023-04-25T21:24:50.802Z,24.50
2023-04-25T21:27:18.185Z,24.50
2023-04-25T21:29:45.483Z,24.00
2023-04-25T21:32:12.533Z,24.00
2023-04-25T21:34:39.472Z,25.00
2023-04-25T21:37:06.350Z,24.50
2023-04-25T21:39:33.167Z,24.25
2023-04-25T21:42:00.167Z,24.75
2023-04-25T21:44:27.018Z,25.00
2023-04-25T21:46:54.111Z,25.00
2023-04-25T21:49:20.980Z,24.00
2023-04-25T21:51:48.011Z,24.00
2023-04-25T21:54:33.634Z,25.00
2023-04-25T21:57:00.689Z,24.00
2023-04-25T21:59:27.622Z,24.00
2023-04-25T22:01:54.943Z,24.00
2023-04-25T22:04:22.121Z,25.00
2023-04-25T22:06:49.226Z,25.00
2023-04-25T22:09:16.147Z,25.00
2023-04-25T22:11:43.022Z,25.00
2023-04-25T22:14:10.286Z,25.00
2023-04-25T22:16:37.463Z,25.00
2023-04-25T22:19:05.049Z,25.00
2023-04-25T22:21:31.975Z,25.00
2023-04-25T22:23:58.873Z,25.00
2023-04-25T22:26:26.109Z,25.50
2023-04-25T22:28:53.343Z,24.00
2023-04-25T22:31:20.623Z,24.50
2023-04-25T22:34:24.780Z,25.00
2023-04-25T22:37:10.380Z,24.00
2023-04-25T22:39:37.628Z,24.00
2023-04-25T22:42:22.726Z,24.00
2023-04-25T22:44:49.696Z,24.00
2023-04-25T22:47:16.569Z,24.00
2023-04-25T22:49:43.572Z,24.50
2023-04-25T22:52:10.457Z,25.00
2023-04-25T22:54:37.466Z,24.00
2023-04-25T22:57:07.348Z,24.00
2023-04-25T22:59:34.330Z,24.00
2023-04-25T23:02:01.247Z,23.50
2023-04-25T23:04:28.394Z,24.00
2023-04-25T23:06:55.314Z,24.00
2023-04-25T23:09:22.271Z,24.00
2023-04-25T23:11:49.200Z,24.00
2023-04-25T23:14:16.091Z,24.00
2023-04-25T23:16:43.053Z,25.00
2023-04-25T23:19:09.982Z,24.00
2023-04-25T23:21:36.859Z,24.50
2023-04-25T23:24:03.986Z,24.00
2023-04-25T23:26:31.356Z,24.00
2023-04-25T23:28:58.642Z,24.00
2023-04-25T23:31:25.592Z,25.00
2023-04-25T23:33:52.587Z,25.00
2023-04-25T23:36:20.319Z,24.00
2023-04-25T23:38:47.829Z,24.00
2023-04-25T23:41:14.788Z,24.00
2023-04-25T23:43:41.898Z,24.00
2023-04-25T23:46:08.868Z,24.00
2023-04-25T23:48:35.956Z,24.00
2023-04-25T23:51:02.848Z,24.00
2023-04-25T23:53:29.904Z,25.00
2023-04-25T23:55:56.805Z,24.00
2023-04-25T23:58:23.792Z,24.00
